Decoded Metar for KCKM ( in ) (IATA:) | Meteo·Mobile Aviation Weather
aviador You're here:

KCKM Decoded Metar

in
Report Time2018-12-19 05:35:00
UTC Time2018-12-19 05:27:46
Flight Rules vfr VFR
WindCalm
Visibility9999 m
Phenomena:N/A
Clouds:N/A
CeilingNone
Temp06°C
Dew Point06°C (100% RH)
AAT5.1°C
QNH1018 hPa
Raw Report
KCKM 190535Z AUTO 00000KT 8SM 06/06 A3007 RMK A01=

Extra information for KCKM:More info

Social comments